Terminal Aerodrome Forecast
Issued by NWS Springfield, MO

Home | Current Version | Previous Version | Text Only | Print | Product List | Glossary On
Versions: 1 2 3 4 5 6 7 8 9 10 11 12 13 14 15
623
FTUS43 KSGF 062035 AAA
TAFSGF
TAF AMD
KSGF 062035Z 0621/0718 24010G15KT P6SM FEW040
     FM070000 19005KT P6SM FEW250
     FM070900 20010KT P6SM SCT250
     FM071500 24014G20KT P6SM SCT250=

USA.gov is the U.S. government's official web portal to all federal, state and local government web resources and services.